createdAt,value
2023-05-19T00:00:46.244Z,95464.00
2023-05-19T00:01:44.509Z,95464.00
2023-05-19T00:02:44.562Z,95464.00
2023-05-19T00:03:44.523Z,95464.00
2023-05-19T00:04:44.489Z,95462.00
2023-05-19T00:05:44.523Z,95462.00
2023-05-19T00:06:44.513Z,95460.00
2023-05-19T00:07:44.513Z,95460.00
2023-05-19T00:08:44.520Z,95456.00
2023-05-19T00:09:44.525Z,95456.00
2023-05-19T00:10:44.475Z,95456.00
2023-05-19T00:11:44.435Z,95456.00
2023-05-19T00:12:44.438Z,95454.00
2023-05-19T00:13:44.433Z,95458.00
2023-05-19T00:14:44.426Z,95456.00
2023-05-19T00:15:44.478Z,95456.00
2023-05-19T00:16:44.420Z,95458.00
2023-05-19T00:17:44.411Z,95458.00
2023-05-19T00:18:44.434Z,95456.00
2023-05-19T00:19:44.388Z,95454.00
2023-05-19T00:20:44.368Z,95458.00
2023-05-19T00:21:44.408Z,95458.00
2023-05-19T00:22:44.366Z,95458.00
2023-05-19T00:23:44.373Z,95460.00
2023-05-19T00:24:44.349Z,95458.00
2023-05-19T00:25:44.371Z,95462.00
2023-05-19T00:26:44.359Z,95462.00
2023-05-19T00:27:44.350Z,95460.00
2023-05-19T00:28:44.342Z,95458.00
2023-05-19T00:29:44.323Z,95458.00
2023-05-19T00:30:44.295Z,95458.00
2023-05-19T00:31:44.345Z,95458.00
2023-05-19T00:32:44.373Z,95462.00
2023-05-19T00:33:44.287Z,95464.00
2023-05-19T00:34:44.271Z,95462.00
2023-05-19T00:35:44.285Z,95464.00
2023-05-19T00:36:44.279Z,95464.00
2023-05-19T00:37:44.251Z,95462.00
2023-05-19T00:38:44.271Z,95462.00
2023-05-19T00:39:44.259Z,95464.00
2023-05-19T00:40:44.250Z,95462.00
2023-05-19T00:41:44.237Z,95460.00
2023-05-19T00:42:44.244Z,95458.00
2023-05-19T00:43:44.254Z,95456.00
2023-05-19T00:44:44.220Z,95456.00
2023-05-19T00:45:44.219Z,95458.00
2023-05-19T00:46:44.236Z,95456.00
2023-05-19T00:47:44.281Z,95456.00
2023-05-19T00:48:44.193Z,95460.00
2023-05-19T00:49:44.171Z,95454.00
2023-05-19T00:50:44.191Z,95454.00
2023-05-19T00:51:44.193Z,95454.00
2023-05-19T00:52:44.177Z,95454.00
2023-05-19T00:53:44.145Z,95452.00
2023-05-19T00:54:44.149Z,95450.00
2023-05-19T00:55:44.158Z,95452.00
2023-05-19T00:56:44.457Z,95450.00
2023-05-19T00:57:44.124Z,95446.00
2023-05-19T00:58:44.136Z,95448.00
2023-05-19T00:59:44.090Z,95444.00
2023-05-19T01:00:44.123Z,95444.00
2023-05-19T01:01:44.149Z,95446.00
2023-05-19T01:02:44.138Z,95444.00
2023-05-19T01:03:44.218Z,95446.00
2023-05-19T01:04:44.073Z,95444.00
2023-05-19T01:05:44.084Z,95450.00
2023-05-19T01:06:44.207Z,95448.00
2023-05-19T01:07:44.091Z,95450.00
2023-05-19T01:08:44.032Z,95450.00
2023-05-19T01:09:44.050Z,95452.00
2023-05-19T01:10:44.045Z,95450.00
2023-05-19T01:11:44.018Z,95452.00
2023-05-19T01:12:44.021Z,95448.00
2023-05-19T01:13:44.251Z,95448.00
2023-05-19T01:14:44.064Z,95446.00
2023-05-19T01:15:44.042Z,95448.00
2023-05-19T01:16:44.103Z,95446.00
2023-05-19T01:17:44.011Z,95448.00
2023-05-19T01:18:43.971Z,95446.00
2023-05-19T01:19:43.997Z,95446.00
2023-05-19T01:20:43.982Z,95446.00
2023-05-19T01:21:44.000Z,95446.00
2023-05-19T01:22:43.945Z,95448.00
2023-05-19T01:23:43.915Z,95446.00
2023-05-19T01:24:43.937Z,95444.00
2023-05-19T01:25:43.920Z,95444.00
2023-05-19T01:26:43.919Z,95442.00
2023-05-19T01:27:43.934Z,95442.00
2023-05-19T01:28:43.927Z,95444.00
2023-05-19T01:29:43.878Z,95442.00
2023-05-19T01:30:43.886Z,95442.00
2023-05-19T01:31:43.913Z,95446.00
2023-05-19T01:32:43.865Z,95446.00
2023-05-19T01:33:43.857Z,95444.00
2023-05-19T01:34:43.825Z,95448.00
2023-05-19T01:35:43.896Z,95446.00
2023-05-19T01:36:43.823Z,95446.00
2023-05-19T01:37:43.847Z,95446.00
2023-05-19T01:38:43.836Z,95448.00
2023-05-19T01:39:43.793Z,95444.00
2023-05-19T01:40:43.850Z,95442.00
2023-05-19T01:41:43.827Z,95442.00
2023-05-19T01:42:43.834Z,95442.00
2023-05-19T01:43:43.818Z,95442.00
2023-05-19T01:44:43.790Z,95442.00
2023-05-19T01:45:43.854Z,95442.00
2023-05-19T01:46:43.790Z,95444.00
2023-05-19T01:47:43.807Z,95442.00
2023-05-19T01:48:43.766Z,95444.00
2023-05-19T01:49:43.763Z,95444.00
2023-05-19T01:50:43.811Z,95444.00
2023-05-19T01:51:43.842Z,95446.00
2023-05-19T01:52:43.883Z,95446.00
2023-05-19T01:53:43.904Z,95446.00
2023-05-19T01:54:43.942Z,95444.00
2023-05-19T01:55:44.044Z,95444.00
2023-05-19T01:56:44.024Z,95444.00
2023-05-19T01:57:44.029Z,95442.00
2023-05-19T01:58:44.108Z,95442.00
2023-05-19T01:59:44.141Z,95444.00
2023-05-19T02:00:44.196Z,95444.00
2023-05-19T02:01:44.288Z,95446.00
2023-05-19T02:02:44.302Z,95446.00
2023-05-19T02:03:44.329Z,95448.00
2023-05-19T02:04:44.549Z,95446.00
2023-05-19T02:05:44.401Z,95448.00
2023-05-19T02:06:44.457Z,95452.00
2023-05-19T02:07:44.463Z,95450.00
2023-05-19T02:08:44.553Z,95452.00
2023-05-19T02:09:44.551Z,95450.00
2023-05-19T02:10:44.623Z,95452.00
2023-05-19T02:11:44.624Z,95452.00
2023-05-19T02:12:44.700Z,95452.00
2023-05-19T02:13:44.703Z,95448.00
2023-05-19T02:14:44.766Z,95450.00
2023-05-19T02:15:44.876Z,95452.00
2023-05-19T02:16:44.941Z,95454.00
2023-05-19T02:17:44.965Z,95450.00
2023-05-19T02:18:44.946Z,95452.00
2023-05-19T02:19:45.001Z,95452.00
2023-05-19T02:20:45.055Z,95452.00
2023-05-19T02:21:45.075Z,95452.00
2023-05-19T02:22:45.133Z,95454.00
2023-05-19T02:25:05.425Z,95454.00
2023-05-19T02:26:05.378Z,95454.00
2023-05-19T02:27:15.380Z,95454.00
2023-05-19T02:28:15.423Z,95454.00
2023-05-19T02:29:17.409Z,95454.00
2023-05-19T02:30:05.325Z,95450.00
2023-05-19T02:31:05.313Z,95450.00
2023-05-19T02:34:44.708Z,95452.00
2023-05-19T02:35:44.702Z,95454.00
2023-05-19T02:36:44.900Z,95456.00
2023-05-19T02:37:44.670Z,95452.00
2023-05-19T02:38:44.667Z,95452.00
2023-05-19T02:39:44.666Z,95452.00
2023-05-19T02:40:44.725Z,95450.00
2023-05-19T02:41:44.629Z,95454.00
2023-05-19T02:42:44.633Z,95452.00
2023-05-19T02:43:44.645Z,95454.00
2023-05-19T02:44:44.661Z,95452.00
2023-05-19T02:45:44.646Z,95452.00
2023-05-19T02:46:44.677Z,95452.00
2023-05-19T02:47:44.707Z,95454.00
2023-05-19T02:48:44.621Z,95450.00
2023-05-19T02:49:44.591Z,95454.00
2023-05-19T02:50:44.626Z,95450.00
2023-05-19T02:51:44.700Z,95448.00
2023-05-19T02:52:44.766Z,95448.00
2023-05-19T02:53:44.892Z,95450.00
2023-05-19T02:54:44.832Z,95448.00
2023-05-19T02:55:44.870Z,95446.00
2023-05-19T02:56:44.983Z,95448.00
2023-05-19T02:57:44.939Z,95446.00
2023-05-19T02:58:44.969Z,95448.00
2023-05-19T02:59:45.173Z,95448.00
2023-05-19T03:00:45.103Z,95446.00
2023-05-19T03:01:45.178Z,95444.00
2023-05-19T03:02:45.248Z,95446.00
2023-05-19T03:03:45.310Z,95444.00
2023-05-19T03:04:45.296Z,95442.00
2023-05-19T03:05:45.265Z,95440.00
2023-05-19T03:06:45.383Z,95440.00
2023-05-19T03:07:45.372Z,95440.00
2023-05-19T03:08:45.440Z,95438.00
2023-05-19T03:09:45.491Z,95436.00
2023-05-19T03:10:45.602Z,95436.00
2023-05-19T03:11:45.557Z,95434.00
2023-05-19T03:12:45.587Z,95436.00
2023-05-19T03:13:45.670Z,95436.00
2023-05-19T03:14:45.715Z,95438.00
2023-05-19T03:15:45.773Z,95436.00
2023-05-19T03:16:45.940Z,95436.00
2023-05-19T03:17:46.014Z,95436.00
2023-05-19T03:18:45.883Z,95436.00
2023-05-19T03:19:45.975Z,95438.00
2023-05-19T03:20:46.041Z,95436.00
2023-05-19T03:21:45.996Z,95436.00
2023-05-19T03:22:46.102Z,95438.00
2023-05-19T03:23:46.113Z,95436.00
2023-05-19T03:24:46.145Z,95436.00
2023-05-19T03:25:46.285Z,95434.00
2023-05-19T03:26:46.381Z,95434.00
2023-05-19T03:27:46.344Z,95436.00
2023-05-19T03:28:46.395Z,95436.00
2023-05-19T03:29:46.493Z,95434.00
2023-05-19T03:30:46.446Z,95434.00
2023-05-19T03:31:46.573Z,95436.00
2023-05-19T03:32:46.713Z,95434.00
2023-05-19T03:33:46.630Z,95434.00
2023-05-19T03:34:46.733Z,95434.00
2023-05-19T03:35:46.791Z,95434.00
2023-05-19T03:36:46.840Z,95432.00
2023-05-19T03:37:46.884Z,95432.00
2023-05-19T03:38:47.100Z,95432.00
2023-05-19T03:39:47.023Z,95432.00
2023-05-19T03:40:47.083Z,95432.00
2023-05-19T03:41:47.394Z,95434.00
2023-05-19T03:42:47.451Z,95434.00
2023-05-19T03:43:47.265Z,95432.00
2023-05-19T03:44:47.322Z,95432.00
2023-05-19T03:45:47.524Z,95430.00
2023-05-19T03:46:47.426Z,95432.00
2023-05-19T03:47:47.561Z,95430.00
2023-05-19T03:48:47.579Z,95430.00
2023-05-19T03:49:47.652Z,95430.00
2023-05-19T03:50:47.674Z,95430.00
2023-05-19T03:51:47.714Z,95430.00
2023-05-19T03:52:47.837Z,95432.00
2023-05-19T03:53:47.798Z,95432.00
2023-05-19T03:54:47.795Z,95432.00
2023-05-19T03:55:47.805Z,95434.00
2023-05-19T03:56:47.803Z,95434.00
2023-05-19T03:57:47.817Z,95436.00
2023-05-19T03:58:47.867Z,95436.00
2023-05-19T03:59:47.974Z,95436.00
2023-05-19T04:00:47.900Z,95440.00
2023-05-19T04:01:47.988Z,95440.00
2023-05-19T04:02:48.076Z,95440.00
2023-05-19T04:03:48.144Z,95438.00
2023-05-19T04:04:48.171Z,95438.00
2023-05-19T04:05:48.160Z,95438.00
2023-05-19T04:06:48.189Z,95438.00
2023-05-19T04:07:48.131Z,95434.00
2023-05-19T04:08:48.158Z,95438.00
2023-05-19T04:09:48.200Z,95436.00
2023-05-19T04:10:48.231Z,95434.00
2023-05-19T04:11:48.269Z,95432.00
2023-05-19T04:12:48.252Z,95434.00
2023-05-19T04:13:48.224Z,95434.00
2023-05-19T04:14:48.276Z,95432.00
2023-05-19T04:15:48.307Z,95432.00
2023-05-19T04:16:48.351Z,95430.00
2023-05-19T04:17:48.439Z,95432.00
2023-05-19T04:18:48.491Z,95432.00
2023-05-19T04:19:48.526Z,95432.00
2023-05-19T04:20:48.520Z,95436.00
2023-05-19T04:21:48.531Z,95436.00
2023-05-19T04:22:48.575Z,95436.00
2023-05-19T04:23:48.603Z,95436.00
2023-05-19T04:24:48.546Z,95438.00
2023-05-19T04:25:48.641Z,95440.00
2023-05-19T04:26:48.552Z,95436.00
2023-05-19T04:27:48.582Z,95442.00
2023-05-19T04:28:48.705Z,95438.00
2023-05-19T04:29:48.580Z,95440.00
2023-05-19T04:30:48.629Z,95442.00
2023-05-19T04:31:48.589Z,95442.00
2023-05-19T04:32:48.645Z,95444.00
2023-05-19T04:33:48.629Z,95444.00
2023-05-19T04:34:48.622Z,95442.00
2023-05-19T04:35:48.614Z,95444.00
2023-05-19T04:36:49.494Z,95444.00
2023-05-19T04:37:48.626Z,95448.00
2023-05-19T04:38:48.725Z,95446.00
2023-05-19T04:39:48.734Z,95446.00
2023-05-19T04:40:48.823Z,95446.00
2023-05-19T04:41:48.878Z,95444.00
2023-05-19T04:42:48.880Z,95444.00
2023-05-19T04:43:48.861Z,95448.00
2023-05-19T04:45:14.713Z,95450.00
2023-05-19T04:46:14.739Z,95450.00
2023-05-19T04:47:14.655Z,95448.00
2023-05-19T04:48:14.606Z,95446.00
2023-05-19T04:49:14.600Z,95444.00
2023-05-19T04:50:14.653Z,95442.00
2023-05-19T04:51:14.894Z,95440.00
2023-05-19T04:52:14.598Z,95440.00
2023-05-19T04:53:14.612Z,95438.00
2023-05-19T04:54:14.573Z,95440.00
2023-05-19T04:55:14.583Z,95446.00
2023-05-19T04:56:14.878Z,95444.00
2023-05-19T04:57:14.572Z,95446.00
2023-05-19T04:58:14.548Z,95446.00
2023-05-19T04:59:14.543Z,95446.00
2023-05-19T05:00:14.650Z,95442.00
2023-05-19T05:01:14.518Z,95438.00
2023-05-19T05:02:14.595Z,95438.00
2023-05-19T05:03:14.680Z,95436.00
2023-05-19T05:04:14.577Z,95440.00
2023-05-19T05:05:14.527Z,95440.00
2023-05-19T05:06:14.513Z,95446.00
2023-05-19T05:07:14.455Z,95444.00
2023-05-19T05:08:14.504Z,95444.00
2023-05-19T05:09:14.467Z,95444.00
2023-05-19T05:10:14.503Z,95444.00
2023-05-19T05:11:14.444Z,95442.00
2023-05-19T05:12:14.444Z,95442.00
2023-05-19T05:13:14.466Z,95438.00
2023-05-19T05:14:14.448Z,95438.00
2023-05-19T05:15:14.473Z,95440.00
2023-05-19T05:16:14.517Z,95444.00
2023-05-19T05:17:14.448Z,95444.00
2023-05-19T05:18:14.409Z,95446.00
2023-05-19T05:19:14.453Z,95444.00
2023-05-19T05:20:14.439Z,95440.00
2023-05-19T05:21:14.450Z,95440.00
2023-05-19T05:22:14.396Z,95438.00
2023-05-19T05:23:14.390Z,95438.00
2023-05-19T05:24:14.395Z,95436.00
2023-05-19T05:25:14.406Z,95438.00
2023-05-19T05:26:14.376Z,95438.00
2023-05-19T05:27:14.424Z,95436.00
2023-05-19T05:28:14.484Z,95434.00
2023-05-19T05:29:14.541Z,95436.00
2023-05-19T05:30:14.540Z,95436.00
2023-05-19T05:31:14.612Z,95438.00
2023-05-19T05:32:14.667Z,95436.00
2023-05-19T05:33:14.867Z,95438.00
2023-05-19T05:34:14.728Z,95434.00
2023-05-19T05:35:14.787Z,95432.00
2023-05-19T05:36:14.855Z,95430.00
2023-05-19T05:37:15.405Z,95430.00
2023-05-19T05:38:14.920Z,95432.00
2023-05-19T05:39:15.058Z,95432.00
2023-05-19T05:40:15.021Z,95430.00
2023-05-19T05:41:15.450Z,95434.00
2023-05-19T05:42:15.083Z,95429.00
2023-05-19T05:43:15.155Z,95434.00
2023-05-19T05:44:15.198Z,95434.00
2023-05-19T05:45:15.261Z,95432.00
2023-05-19T05:46:15.356Z,95434.00
2023-05-19T05:47:15.339Z,95434.00
2023-05-19T05:48:15.413Z,95430.00
2023-05-19T05:49:15.433Z,95432.00
2023-05-19T05:50:15.436Z,95430.00
2023-05-19T05:51:15.915Z,95434.00
2023-05-19T05:52:15.533Z,95430.00
2023-05-19T05:53:15.596Z,95430.00
2023-05-19T05:54:15.632Z,95429.00
2023-05-19T05:55:15.692Z,95429.00
2023-05-19T05:56:15.896Z,95429.00
2023-05-19T05:57:15.755Z,95429.00
2023-05-19T05:58:15.803Z,95425.00
2023-05-19T05:59:15.881Z,95427.00
2023-05-19T06:00:15.912Z,95427.00
2023-05-19T06:01:15.927Z,95427.00
2023-05-19T06:02:16.018Z,95427.00
2023-05-19T06:03:16.135Z,95425.00
2023-05-19T06:04:16.039Z,95425.00
2023-05-19T06:05:16.111Z,95427.00
2023-05-19T06:06:16.171Z,95427.00
2023-05-19T06:07:16.195Z,95425.00
2023-05-19T06:08:16.188Z,95425.00
2023-05-19T06:09:16.251Z,95427.00
2023-05-19T06:10:16.324Z,95425.00
2023-05-19T06:11:16.325Z,95427.00
2023-05-19T06:12:16.402Z,95425.00
2023-05-19T06:13:16.415Z,95429.00
2023-05-19T06:14:16.473Z,95423.00
2023-05-19T06:15:16.540Z,95425.00
2023-05-19T06:16:16.624Z,95425.00
2023-05-19T06:17:16.551Z,95425.00
2023-05-19T06:18:16.570Z,95430.00
2023-05-19T06:19:16.581Z,95429.00
2023-05-19T06:20:17.376Z,95429.00
2023-05-19T06:21:16.633Z,95430.00
2023-05-19T06:22:16.638Z,95429.00
2023-05-19T06:23:16.688Z,95432.00
2023-05-19T06:24:16.704Z,95430.00
2023-05-19T06:25:16.709Z,95430.00
2023-05-19T06:26:16.755Z,95432.00
2023-05-19T06:27:16.854Z,95434.00
2023-05-19T06:28:16.742Z,95432.00
2023-05-19T06:29:16.817Z,95432.00
2023-05-19T06:30:16.804Z,95432.00
2023-05-19T06:31:16.878Z,95430.00
2023-05-19T06:32:16.812Z,95427.00
2023-05-19T06:33:16.837Z,95427.00
2023-05-19T06:34:16.813Z,95427.00
2023-05-19T06:35:16.827Z,95429.00
2023-05-19T06:36:16.840Z,95425.00
2023-05-19T06:37:16.967Z,95421.00
2023-05-19T06:38:16.850Z,95427.00
2023-05-19T06:39:16.859Z,95423.00
2023-05-19T06:40:16.883Z,95421.00
2023-05-19T06:41:16.881Z,95425.00
2023-05-19T06:42:16.918Z,95423.00
2023-05-19T06:43:16.852Z,95421.00
2023-05-19T06:44:17.113Z,95425.00
2023-05-19T06:45:16.899Z,95423.00
2023-05-19T06:46:16.901Z,95423.00
2023-05-19T06:47:16.928Z,95425.00
2023-05-19T06:48:16.970Z,95421.00
2023-05-19T06:49:16.883Z,95423.00
2023-05-19T06:50:16.930Z,95423.00
2023-05-19T06:51:16.898Z,95425.00
2023-05-19T06:52:16.961Z,95423.00
2023-05-19T06:53:17.054Z,95421.00
2023-05-19T06:54:17.106Z,95421.00
2023-05-19T06:55:17.117Z,95419.00
2023-05-19T06:56:17.175Z,95417.00
2023-05-19T06:57:17.214Z,95417.00
2023-05-19T06:58:17.280Z,95419.00
2023-05-19T06:59:17.313Z,95407.00
2023-05-19T07:00:18.807Z,95415.00
2023-05-19T07:01:17.504Z,95407.00
2023-05-19T07:02:17.605Z,95415.00
2023-05-19T07:03:17.597Z,95415.00
2023-05-19T07:04:17.574Z,95415.00
2023-05-19T07:05:17.556Z,95415.00
2023-05-19T07:06:17.556Z,95407.00
2023-05-19T07:07:17.585Z,95407.00
2023-05-19T07:08:17.684Z,95407.00
2023-05-19T07:09:17.695Z,95407.00
2023-05-19T07:10:17.679Z,95415.00
2023-05-19T07:11:17.672Z,95415.00
2023-05-19T07:12:17.695Z,95417.00
2023-05-19T07:13:17.721Z,95417.00
2023-05-19T07:14:17.734Z,95419.00
2023-05-19T07:15:17.728Z,95417.00
2023-05-19T07:16:17.749Z,95415.00
2023-05-19T07:17:17.733Z,95403.00
2023-05-19T07:18:17.751Z,95405.00
2023-05-19T07:19:17.767Z,95407.00
2023-05-19T07:20:17.764Z,95405.00
2023-05-19T07:21:17.755Z,95405.00
2023-05-19T07:22:17.772Z,95407.00
2023-05-19T07:23:17.781Z,95405.00
2023-05-19T07:24:17.798Z,95407.00
2023-05-19T07:25:17.798Z,95403.00
2023-05-19T07:26:17.838Z,95403.00
2023-05-19T07:27:17.917Z,95401.00
2023-05-19T07:28:17.800Z,95401.00
2023-05-19T07:29:17.875Z,95395.00
2023-05-19T07:30:17.814Z,95395.00
2023-05-19T07:31:18.048Z,95393.00
2023-05-19T07:32:18.086Z,95393.00
2023-05-19T07:33:18.045Z,95393.00
2023-05-19T07:34:18.041Z,95393.00
2023-05-19T07:35:18.058Z,95391.00
2023-05-19T07:36:18.013Z,95389.00
2023-05-19T07:37:18.435Z,95387.00
2023-05-19T07:38:18.014Z,95389.00
2023-05-19T07:39:18.079Z,95389.00
2023-05-19T07:40:18.029Z,95387.00
2023-05-19T07:41:18.052Z,95385.00
2023-05-19T07:42:18.100Z,95383.00
2023-05-19T07:43:18.088Z,95385.00
2023-05-19T07:44:18.152Z,95385.00
2023-05-19T07:45:18.108Z,95381.00
2023-05-19T07:46:18.282Z,95381.00
2023-05-19T07:47:18.236Z,95379.00
2023-05-19T07:48:18.275Z,95377.00
2023-05-19T07:49:18.297Z,95381.00
2023-05-19T07:50:18.389Z,95379.00
2023-05-19T07:51:18.404Z,95379.00
2023-05-19T07:52:18.446Z,95377.00
2023-05-19T07:53:18.509Z,95376.00
2023-05-19T07:54:18.539Z,95374.00
2023-05-19T07:55:18.596Z,95376.00
2023-05-19T07:56:18.607Z,95374.00
2023-05-19T07:57:18.914Z,95372.00
2023-05-19T07:58:18.726Z,95374.00
2023-05-19T07:59:18.764Z,95372.00
2023-05-19T08:00:18.828Z,95370.00
2023-05-19T08:01:18.886Z,95372.00
2023-05-19T08:02:19.029Z,95370.00
2023-05-19T08:03:19.211Z,95368.00
2023-05-19T08:04:19.177Z,95368.00
2023-05-19T08:05:19.124Z,95366.00
2023-05-19T08:06:19.199Z,95368.00
2023-05-19T08:07:19.302Z,95368.00
2023-05-19T08:08:19.329Z,95366.00
2023-05-19T08:09:19.348Z,95360.00
2023-05-19T08:10:19.422Z,95362.00
2023-05-19T08:11:19.527Z,95366.00
2023-05-19T08:12:19.592Z,95364.00
2023-05-19T08:13:19.651Z,95362.00
2023-05-19T08:14:19.648Z,95366.00
2023-05-19T08:15:19.710Z,95364.00
2023-05-19T08:16:19.800Z,95366.00
2023-05-19T08:17:19.845Z,95360.00
2023-05-19T08:18:19.925Z,95360.00
2023-05-19T08:19:20.081Z,95358.00
2023-05-19T08:20:20.063Z,95362.00
2023-05-19T08:21:20.042Z,95358.00
2023-05-19T08:22:20.124Z,95360.00
2023-05-19T08:23:20.113Z,95360.00
2023-05-19T08:24:20.223Z,95356.00
2023-05-19T08:25:20.222Z,95354.00
2023-05-19T08:26:20.266Z,95358.00
2023-05-19T08:27:20.306Z,95356.00
2023-05-19T08:28:20.260Z,95356.00
2023-05-19T08:29:20.312Z,95354.00
2023-05-19T08:30:20.377Z,95354.00
2023-05-19T08:31:20.350Z,95350.00
2023-05-19T08:32:20.483Z,95350.00
2023-05-19T08:33:20.431Z,95350.00
2023-05-19T08:34:20.518Z,95350.00
2023-05-19T08:35:20.527Z,95344.00
2023-05-19T08:36:20.569Z,95342.00
2023-05-19T08:37:20.990Z,95338.00
2023-05-19T08:38:20.792Z,95340.00
2023-05-19T08:39:20.688Z,95340.00
2023-05-19T08:40:20.755Z,95338.00
2023-05-19T08:41:20.837Z,95336.00
2023-05-19T08:42:20.982Z,95336.00
2023-05-19T08:43:20.848Z,95336.00
2023-05-19T08:44:20.902Z,95340.00
2023-05-19T08:45:20.885Z,95334.00
2023-05-19T08:46:20.982Z,95338.00
2023-05-19T08:47:20.942Z,95336.00
2023-05-19T08:48:21.026Z,95332.00
2023-05-19T08:49:21.349Z,95332.00
2023-05-19T08:50:21.044Z,95327.00
2023-05-19T08:51:21.077Z,95327.00
2023-05-19T08:53:40.664Z,95323.00
2023-05-19T08:54:40.773Z,95321.00
2023-05-19T08:55:40.633Z,95319.00
2023-05-19T08:56:50.868Z,95317.00
2023-05-19T08:57:55.423Z,95315.00
2023-05-19T08:58:56.631Z,95315.00
2023-05-19T08:59:40.576Z,95315.00
2023-05-19T09:00:52.627Z,95313.00
2023-05-19T09:01:51.439Z,95313.00
2023-05-19T09:03:00.815Z,95315.00
2023-05-19T09:03:50.815Z,95313.00
2023-05-19T09:07:29.986Z,95311.00
2023-05-19T09:08:35.929Z,95313.00
2023-05-19T09:09:19.860Z,95311.00
2023-05-19T09:10:19.779Z,95309.00
2023-05-19T09:11:19.787Z,95309.00
2023-05-19T09:12:19.795Z,95311.00
2023-05-19T09:13:19.765Z,95309.00
2023-05-19T09:14:19.750Z,95307.00
2023-05-19T09:15:19.739Z,95305.00
2023-05-19T09:16:19.791Z,95301.00
2023-05-19T09:17:19.788Z,95301.00
2023-05-19T09:18:19.726Z,95301.00
2023-05-19T09:19:19.708Z,95299.00
2023-05-19T09:20:19.731Z,95297.00
2023-05-19T09:21:19.707Z,95295.00
2023-05-19T09:22:19.716Z,95295.00
2023-05-19T09:23:19.691Z,95293.00
2023-05-19T09:24:19.668Z,95289.00
2023-05-19T09:25:19.660Z,95285.00
2023-05-19T09:26:19.653Z,95287.00
2023-05-19T09:27:19.657Z,95289.00
2023-05-19T09:28:19.640Z,95289.00
2023-05-19T09:29:19.647Z,95287.00
2023-05-19T09:30:19.740Z,95285.00
2023-05-19T09:31:19.590Z,95280.00
2023-05-19T09:32:20.073Z,95278.00
2023-05-19T09:33:19.638Z,95280.00
2023-05-19T09:34:19.591Z,95280.00
2023-05-19T09:35:19.622Z,95276.00
2023-05-19T09:36:19.604Z,95274.00
2023-05-19T09:37:19.612Z,95276.00
2023-05-19T09:38:19.654Z,95274.00
2023-05-19T09:39:19.557Z,95272.00
2023-05-19T09:40:19.557Z,95270.00
2023-05-19T09:41:19.557Z,95268.00
2023-05-19T09:42:19.536Z,95268.00
2023-05-19T09:43:19.632Z,95264.00
2023-05-19T09:44:19.504Z,95268.00
2023-05-19T09:45:20.519Z,95266.00
2023-05-19T09:46:19.732Z,95262.00
2023-05-19T09:47:19.671Z,95264.00
2023-05-19T09:48:19.673Z,95266.00
2023-05-19T09:49:19.696Z,95266.00
2023-05-19T09:50:19.843Z,95258.00
2023-05-19T09:51:19.810Z,95262.00
2023-05-19T09:52:19.827Z,95260.00
2023-05-19T09:53:19.934Z,95254.00
2023-05-19T09:54:19.913Z,95256.00
2023-05-19T09:55:19.954Z,95258.00
2023-05-19T09:56:19.982Z,95256.00
2023-05-19T09:57:19.988Z,95254.00
2023-05-19T09:58:19.994Z,95254.00
2023-05-19T09:59:20.015Z,95246.00
2023-05-19T10:00:20.075Z,95246.00
2023-05-19T10:01:20.143Z,95242.00
2023-05-19T10:02:20.115Z,95240.00
2023-05-19T10:03:20.201Z,95236.00
2023-05-19T10:04:20.133Z,95234.00
2023-05-19T10:05:20.394Z,95230.00
2023-05-19T10:06:20.213Z,95225.00
2023-05-19T10:07:20.539Z,95228.00
2023-05-19T10:08:20.184Z,95225.00
2023-05-19T10:09:20.220Z,95225.00
2023-05-19T10:10:20.264Z,95223.00
2023-05-19T10:11:20.276Z,95223.00
2023-05-19T10:12:20.352Z,95219.00
2023-05-19T10:13:20.377Z,95217.00
2023-05-19T10:14:20.452Z,95211.00
2023-05-19T10:15:22.175Z,95209.00
2023-05-19T10:16:20.648Z,95213.00
2023-05-19T10:17:20.702Z,95209.00
2023-05-19T10:18:20.735Z,95211.00
2023-05-19T10:19:20.824Z,95209.00
2023-05-19T10:20:20.745Z,95205.00
2023-05-19T10:21:20.760Z,95207.00
2023-05-19T10:22:20.761Z,95205.00
2023-05-19T10:23:20.779Z,95203.00
2023-05-19T10:24:20.759Z,95201.00
2023-05-19T10:25:20.804Z,95201.00
2023-05-19T10:26:20.814Z,95201.00
2023-05-19T10:27:20.951Z,95197.00
2023-05-19T10:28:20.974Z,95197.00
2023-05-19T10:29:21.036Z,95195.00
2023-05-19T10:30:21.090Z,95193.00
2023-05-19T10:31:21.054Z,95191.00
2023-05-19T10:32:21.166Z,95193.00
2023-05-19T10:33:21.181Z,95191.00
2023-05-19T10:34:21.158Z,95189.00
2023-05-19T10:35:21.238Z,95189.00
2023-05-19T10:36:21.314Z,95189.00
2023-05-19T10:37:21.612Z,95185.00
2023-05-19T10:38:21.349Z,95183.00
2023-05-19T10:39:21.384Z,95180.00
2023-05-19T10:40:21.450Z,95178.00
2023-05-19T10:41:21.471Z,95178.00
2023-05-19T10:42:21.516Z,95176.00
2023-05-19T10:43:21.547Z,95178.00
2023-05-19T10:44:21.641Z,95174.00
2023-05-19T10:45:21.669Z,95176.00
2023-05-19T10:46:21.661Z,95172.00
2023-05-19T10:47:21.743Z,95172.00
2023-05-19T10:48:21.729Z,95172.00
2023-05-19T10:49:21.786Z,95170.00
2023-05-19T10:50:21.789Z,95174.00
2023-05-19T10:51:21.761Z,95172.00
2023-05-19T10:52:21.781Z,95172.00
2023-05-19T10:53:21.888Z,95168.00
2023-05-19T10:54:21.819Z,95166.00
2023-05-19T10:55:21.801Z,95166.00
2023-05-19T10:56:21.997Z,95166.00
2023-05-19T10:57:21.830Z,95162.00
2023-05-19T10:58:21.840Z,95162.00
2023-05-19T10:59:21.850Z,95162.00
2023-05-19T11:00:21.852Z,95160.00
2023-05-19T11:01:21.947Z,95148.00
2023-05-19T11:02:21.996Z,95160.00
2023-05-19T11:03:22.070Z,95150.00
2023-05-19T11:04:22.016Z,95150.00
2023-05-19T11:05:22.052Z,95150.00
2023-05-19T11:06:22.087Z,95146.00
2023-05-19T11:07:22.134Z,95144.00
2023-05-19T11:08:22.189Z,95146.00
2023-05-19T11:09:31.085Z,95148.00
2023-05-19T11:10:23.310Z,95146.00
2023-05-19T11:11:23.310Z,95148.00
2023-05-19T11:12:22.200Z,95150.00
2023-05-19T11:13:22.614Z,95146.00
2023-05-19T11:14:22.162Z,95146.00
2023-05-19T11:15:22.229Z,95144.00
2023-05-19T11:16:22.213Z,95144.00
2023-05-19T11:17:22.607Z,95144.00
2023-05-19T11:18:22.183Z,95142.00
2023-05-19T11:19:22.299Z,95146.00
2023-05-19T11:20:22.245Z,95144.00
2023-05-19T11:21:22.311Z,95142.00
2023-05-19T11:22:22.676Z,95144.00
2023-05-19T11:23:22.455Z,95144.00
2023-05-19T11:24:22.412Z,95138.00
2023-05-19T11:25:22.501Z,95136.00
2023-05-19T11:26:22.524Z,95135.00
2023-05-19T11:27:23.126Z,95133.00
2023-05-19T11:28:22.668Z,95131.00
2023-05-19T11:29:22.674Z,95129.00
2023-05-19T11:30:22.743Z,95127.00
2023-05-19T11:31:22.798Z,95123.00
2023-05-19T11:32:23.107Z,95125.00
2023-05-19T11:33:22.861Z,95123.00
2023-05-19T11:34:22.967Z,95119.00
2023-05-19T11:35:22.902Z,95115.00
2023-05-19T11:36:22.926Z,95119.00
2023-05-19T11:37:23.004Z,95111.00
2023-05-19T11:38:22.993Z,95109.00
2023-05-19T11:39:23.138Z,95109.00
2023-05-19T11:40:23.052Z,95103.00
2023-05-19T11:41:23.070Z,95101.00
2023-05-19T11:42:23.074Z,95103.00
2023-05-19T11:43:23.052Z,95105.00
2023-05-19T11:44:23.073Z,95097.00
2023-05-19T11:45:23.085Z,95097.00
2023-05-19T11:46:23.178Z,95093.00
2023-05-19T11:47:23.202Z,95095.00
2023-05-19T11:48:23.302Z,95091.00
2023-05-19T11:49:23.218Z,95095.00
2023-05-19T11:50:23.231Z,95089.00
2023-05-19T11:51:23.217Z,95089.00
2023-05-19T11:52:23.611Z,95089.00
2023-05-19T11:53:23.301Z,95087.00